createdAt,value
2018-07-07T00:01:18.853Z,98845.12
2018-07-07T00:03:47.432Z,98844.98
2018-07-07T00:06:15.781Z,98843.58
2018-07-07T00:08:44.148Z,98842.67
2018-07-07T00:11:12.550Z,98850.09
2018-07-07T00:13:40.904Z,98847.19
2018-07-07T00:16:09.303Z,98850.28
2018-07-07T00:18:37.669Z,98844.77
2018-07-07T00:21:06.314Z,98850.42
2018-07-07T00:23:34.677Z,98846.55
2018-07-07T00:26:03.567Z,98846.47
2018-07-07T00:28:32.596Z,98844.81
2018-07-07T00:31:00.930Z,98849.56
2018-07-07T00:33:29.569Z,98852.98
2018-07-07T00:35:57.878Z,98850.47
2018-07-07T00:38:26.162Z,98850.30
2018-07-07T00:40:54.460Z,98852.77
2018-07-07T00:43:22.819Z,98851.26
2018-07-07T00:45:51.191Z,98853.88
2018-07-07T00:48:19.569Z,98848.63
2018-07-07T00:50:48.053Z,98850.42
2018-07-07T00:53:16.405Z,98859.04
2018-07-07T00:55:44.746Z,98860.94
2018-07-07T00:58:13.939Z,98863.94
2018-07-07T01:00:50.981Z,98864.22
2018-07-07T01:03:19.651Z,98861.89
2018-07-07T01:05:48.689Z,98863.80
2018-07-07T01:08:17.891Z,98859.82
2018-07-07T01:10:46.256Z,98858.23
2018-07-07T01:13:15.675Z,98860.03
2018-07-07T01:15:44.017Z,98863.51
2018-07-07T01:18:12.301Z,98864.75
2018-07-07T01:20:40.673Z,98866.27
2018-07-07T01:23:09.061Z,98870.28
2018-07-07T01:25:37.401Z,98873.56
2018-07-07T01:28:06.277Z,98871.63
2018-07-07T01:30:34.894Z,98876.67
2018-07-07T01:33:03.285Z,98867.38
2018-07-07T01:35:31.693Z,98873.61
2018-07-07T01:38:00.036Z,98869.62
2018-07-07T01:40:28.437Z,98873.55
2018-07-07T01:42:56.749Z,98869.73
2018-07-07T01:45:25.128Z,98875.56
2018-07-07T01:47:53.445Z,98873.25
2018-07-07T01:50:21.766Z,98878.31
2018-07-07T01:52:50.306Z,98879.00
2018-07-07T01:55:18.651Z,98873.03
2018-07-07T01:57:46.968Z,98874.19
2018-07-07T02:00:15.307Z,98875.71
2018-07-07T02:02:43.706Z,98879.41
2018-07-07T02:05:12.078Z,98880.44
2018-07-07T02:07:40.357Z,98880.34
2018-07-07T02:10:08.802Z,98883.82
2018-07-07T02:12:37.271Z,98881.28
2018-07-07T02:15:05.941Z,98890.01
2018-07-07T02:17:34.288Z,98888.13
2018-07-07T02:20:02.676Z,98891.76
2018-07-07T02:22:31.001Z,98890.73
2018-07-07T02:24:59.308Z,98894.50
2018-07-07T02:27:27.737Z,98894.64
2018-07-07T02:29:56.113Z,98898.65
2018-07-07T02:32:24.437Z,98899.36
2018-07-07T02:34:52.764Z,98900.11
2018-07-07T02:37:21.127Z,98901.55
2018-07-07T02:39:49.499Z,98896.63
2018-07-07T02:42:17.887Z,98905.17
2018-07-07T02:44:46.232Z,98897.23
2018-07-07T02:47:14.677Z,98901.78
2018-07-07T02:49:43.040Z,98901.09
2018-07-07T02:52:11.390Z,98902.81
2018-07-07T02:54:39.744Z,98901.26
2018-07-07T02:57:08.074Z,98902.64
2018-07-07T02:59:36.461Z,98901.67
2018-07-07T03:02:04.753Z,98909.99
2018-07-07T03:04:33.133Z,98908.73
2018-07-07T03:07:01.498Z,98909.02
2018-07-07T03:09:29.860Z,98905.61
2018-07-07T03:11:58.241Z,98903.37
2018-07-07T03:14:26.568Z,98911.56
2018-07-07T03:16:55.325Z,98919.05
2018-07-07T03:19:23.793Z,98917.39
2018-07-07T03:21:52.083Z,98918.76
2018-07-07T03:24:20.493Z,98919.56
2018-07-07T03:26:48.828Z,98916.05
2018-07-07T03:29:17.271Z,98919.39
2018-07-07T03:31:45.556Z,98915.35
2018-07-07T03:34:14.024Z,98919.68
2018-07-07T03:36:42.287Z,98923.50
2018-07-07T03:39:11.173Z,98924.47
2018-07-07T03:41:40.183Z,98932.54
2018-07-07T03:44:08.626Z,98926.33
2018-07-07T03:46:37.145Z,98927.67
2018-07-07T03:49:05.840Z,98933.05
2018-07-07T03:51:34.438Z,98934.83
2018-07-07T03:54:02.781Z,98931.24
2018-07-07T03:56:31.101Z,98932.98
2018-07-07T03:58:59.464Z,98926.93
2018-07-07T04:01:27.936Z,98926.09
2018-07-07T04:03:56.235Z,98927.85
2018-07-07T04:06:24.641Z,98924.31
2018-07-07T04:08:52.966Z,98932.70
2018-07-07T04:11:21.296Z,98925.95
2018-07-07T04:13:49.651Z,98930.44
2018-07-07T04:16:18.055Z,98926.73
2018-07-07T04:18:46.384Z,98933.69
2018-07-07T04:21:14.700Z,98935.01
2018-07-07T04:23:43.239Z,98934.33
2018-07-07T04:26:11.612Z,98934.63
2018-07-07T04:28:40.002Z,98931.38
2018-07-07T04:31:08.389Z,98927.08
2018-07-07T04:33:36.694Z,98929.36
2018-07-07T04:36:05.258Z,98926.09
2018-07-07T04:38:33.571Z,98931.38
2018-07-07T04:41:01.976Z,98927.16
2018-07-07T04:43:30.310Z,98927.83
2018-07-07T04:45:58.670Z,98931.36
2018-07-07T04:48:26.994Z,98932.95
2018-07-07T04:50:55.375Z,98926.88
2018-07-07T04:53:23.756Z,98927.42
2018-07-07T04:55:52.403Z,98929.06
2018-07-07T04:58:20.721Z,98933.62
2018-07-07T05:00:49.112Z,98935.63
2018-07-07T05:03:17.429Z,98937.19
2018-07-07T05:05:45.713Z,98945.56
2018-07-07T05:08:14.061Z,98943.73
2018-07-07T05:10:42.451Z,98945.62
2018-07-07T05:13:10.846Z,98945.97
2018-07-07T05:15:39.246Z,98946.79
2018-07-07T05:18:07.573Z,98943.28
2018-07-07T05:20:35.943Z,98951.52
2018-07-07T05:23:04.298Z,98951.66
2018-07-07T05:25:32.607Z,98941.02
2018-07-07T05:28:00.951Z,98942.98
2018-07-07T05:30:31.910Z,98951.07
2018-07-07T05:33:00.964Z,98940.84
2018-07-07T05:35:29.231Z,98948.16
2018-07-07T05:37:58.340Z,98944.09
2018-07-07T05:40:26.856Z,98950.22
2018-07-07T05:42:55.426Z,98944.87
2018-07-07T05:45:23.788Z,98948.27
2018-07-07T05:47:52.312Z,98948.95
2018-07-07T05:50:20.631Z,98952.35
2018-07-07T05:52:48.951Z,98947.58
2018-07-07T05:55:17.417Z,98942.41
2018-07-07T05:57:45.754Z,98953.89
2018-07-07T06:00:14.755Z,98949.51
2018-07-07T06:02:43.068Z,98947.91
2018-07-07T06:05:11.636Z,98944.80
2018-07-07T06:07:40.216Z,98943.50
2018-07-07T06:10:08.903Z,98949.48
2018-07-07T06:12:37.625Z,98948.14
2018-07-07T06:15:06.726Z,98948.74
2018-07-07T06:17:35.055Z,98948.42
2018-07-07T06:20:04.232Z,98950.75
2018-07-07T06:22:32.578Z,98954.06
2018-07-07T06:25:00.877Z,98962.78
2018-07-07T06:27:29.465Z,98962.14
2018-07-07T06:29:57.914Z,98956.20
2018-07-07T06:32:26.400Z,98963.80
2018-07-07T06:34:54.924Z,98963.24
2018-07-07T06:37:23.277Z,98964.44
2018-07-07T06:39:51.649Z,98964.49
2018-07-07T06:42:20.020Z,98965.41
2018-07-07T06:44:48.421Z,98965.10
2018-07-07T06:47:16.767Z,98965.13
2018-07-07T06:49:45.353Z,98966.80
2018-07-07T06:52:13.718Z,98959.83
2018-07-07T06:54:42.156Z,98961.14
2018-07-07T06:57:10.495Z,98965.99
2018-07-07T06:59:38.959Z,98970.29
2018-07-07T07:02:07.622Z,98970.22
2018-07-07T07:04:38.912Z,98968.11
2018-07-07T07:07:15.606Z,98967.55
2018-07-07T07:12:28.731Z,98968.01
2018-07-07T07:14:56.990Z,98968.42
2018-07-07T07:17:25.335Z,98967.47
2018-07-07T07:19:53.771Z,98962.98
2018-07-07T07:22:26.145Z,98959.79
2018-07-07T07:25:00.912Z,98960.25
2018-07-07T07:27:30.376Z,98953.03
2018-07-07T07:29:58.720Z,98959.41
2018-07-07T07:32:27.203Z,98954.47
2018-07-07T07:34:55.695Z,98949.97
2018-07-07T07:37:24.111Z,98954.80
2018-07-07T07:39:52.412Z,98949.75
2018-07-07T07:42:20.797Z,98953.48
2018-07-07T07:44:49.425Z,98947.37
2018-07-07T07:47:17.940Z,98949.14
2018-07-07T07:49:46.305Z,98943.60
2018-07-07T07:52:14.647Z,98940.66
2018-07-07T07:54:42.991Z,98950.70
2018-07-07T07:57:11.349Z,98934.05
2018-07-07T07:59:39.837Z,98938.36
2018-07-07T08:02:08.155Z,98941.94
2018-07-07T08:04:36.616Z,98934.81
2018-07-07T08:07:04.999Z,98933.01
2018-07-07T08:09:33.419Z,98931.32
2018-07-07T08:12:01.838Z,98935.22
2018-07-07T08:14:30.193Z,98934.25
2018-07-07T08:16:58.578Z,98931.44
2018-07-07T08:19:27.529Z,98935.48
2018-07-07T08:21:55.832Z,98933.56
2018-07-07T08:24:24.165Z,98934.97
2018-07-07T08:26:52.754Z,98937.33
2018-07-07T08:29:21.063Z,98932.53
2018-07-07T08:31:49.578Z,98940.07
2018-07-07T08:34:18.241Z,98933.58
2018-07-07T08:36:46.891Z,98940.38
2018-07-07T08:39:15.274Z,98928.87
2018-07-07T08:41:44.289Z,98931.00
2018-07-07T08:44:13.141Z,98932.02
2018-07-07T08:46:42.096Z,98931.80
2018-07-07T08:49:10.605Z,98932.06
2018-07-07T08:51:38.856Z,98932.52
2018-07-07T08:54:07.153Z,98928.78
2018-07-07T08:56:35.465Z,98927.52
2018-07-07T08:59:03.764Z,98925.78
2018-07-07T09:01:32.075Z,98932.69
2018-07-07T09:04:00.524Z,98932.16
2018-07-07T09:06:28.925Z,98925.84
2018-07-07T09:08:57.383Z,98932.78
2018-07-07T09:11:25.797Z,98928.20
2018-07-07T09:13:54.142Z,98931.45
2018-07-07T09:16:24.871Z,98924.36
2018-07-07T09:18:53.565Z,98929.58
2018-07-07T09:21:23.258Z,98924.08
2018-07-07T09:23:51.995Z,98927.94
2018-07-07T09:26:38.306Z,98929.16
2018-07-07T09:29:15.156Z,98922.08
2018-07-07T09:31:54.298Z,98929.28
2018-07-07T09:34:24.781Z,98925.09
2018-07-07T09:36:56.331Z,98929.28
2018-07-07T09:39:24.772Z,98919.97
2018-07-07T09:41:53.905Z,98919.63
2018-07-07T09:44:25.554Z,98919.22
2018-07-07T09:46:54.442Z,98917.63
2018-07-07T09:49:22.967Z,98924.91
2018-07-07T09:51:51.368Z,98926.59
2018-07-07T09:54:19.720Z,98921.36
2018-07-07T09:56:48.747Z,98925.34
2018-07-07T09:59:17.116Z,98911.59
2018-07-07T10:01:45.509Z,98915.91
2018-07-07T10:04:13.926Z,98913.78
2018-07-07T10:06:42.258Z,98909.29
2018-07-07T10:09:10.713Z,98910.72
2018-07-07T10:11:39.110Z,98913.14
2018-07-07T10:14:07.416Z,98904.69
2018-07-07T10:16:35.717Z,98904.81
2018-07-07T10:19:04.108Z,98901.31
2018-07-07T10:21:36.834Z,98903.60
2018-07-07T10:24:05.453Z,98903.11
2018-07-07T10:26:33.689Z,98908.29
2018-07-07T10:29:01.983Z,98906.44
2018-07-07T10:31:30.522Z,98902.30
2018-07-07T10:33:59.192Z,98907.47
2018-07-07T10:36:27.554Z,98907.16
2018-07-07T10:38:55.888Z,98900.44
2018-07-07T10:41:24.229Z,98902.83
2018-07-07T10:43:52.506Z,98901.45
2018-07-07T10:46:20.806Z,98900.96
2018-07-07T10:48:49.288Z,98894.72
2018-07-07T10:51:17.568Z,98896.80
2018-07-07T10:53:45.993Z,98890.29
2018-07-07T10:56:14.325Z,98899.63
2018-07-07T10:58:42.645Z,98894.16
2018-07-07T11:01:11.083Z,98897.25
2018-07-07T11:03:39.353Z,98890.08
2018-07-07T11:06:07.757Z,98890.31
2018-07-07T11:08:36.119Z,98883.06
2018-07-07T11:11:04.517Z,98882.53
2018-07-07T11:13:32.856Z,98886.56
2018-07-07T11:16:01.325Z,98882.63
2018-07-07T11:18:29.669Z,98886.58
2018-07-07T11:20:57.941Z,98883.66
2018-07-07T11:23:26.273Z,98885.42
2018-07-07T11:25:54.876Z,98872.77
2018-07-07T11:28:23.269Z,98872.69
2018-07-07T11:30:51.846Z,98867.90
2018-07-07T11:33:20.264Z,98867.51
2018-07-07T11:35:48.522Z,98869.56
2018-07-07T11:38:16.925Z,98860.16
2018-07-07T11:40:45.277Z,98864.11
2018-07-07T11:43:13.629Z,98864.10
2018-07-07T11:45:41.989Z,98861.52
2018-07-07T11:48:10.517Z,98862.98
2018-07-07T11:50:38.936Z,98859.22
2018-07-07T11:53:07.306Z,98856.57
2018-07-07T11:55:35.601Z,98852.94
2018-07-07T11:58:04.064Z,98847.80
2018-07-07T12:00:46.865Z,98852.14
2018-07-07T12:03:15.285Z,98849.16
2018-07-07T12:05:43.745Z,98846.09
2018-07-07T12:08:13.992Z,98848.02
2018-07-07T12:10:40.628Z,98845.77
2018-07-07T12:13:09.253Z,98841.67
2018-07-07T12:24:16.173Z,98837.47
2018-07-07T12:27:15.650Z,98835.74
2018-07-07T12:29:44.494Z,98828.55
2018-07-07T12:32:13.043Z,98827.19
2018-07-07T12:34:41.443Z,98821.03
2018-07-07T12:37:09.705Z,98822.17
2018-07-07T12:39:38.702Z,98818.98
2018-07-07T12:42:07.093Z,98815.52
2018-07-07T12:44:35.421Z,98814.98
2018-07-07T12:47:03.739Z,98810.03
2018-07-07T12:49:32.120Z,98814.35
2018-07-07T12:52:00.458Z,98811.72
2018-07-07T12:54:28.793Z,98813.19
2018-07-07T12:56:57.102Z,98814.21
2018-07-07T12:59:25.399Z,98814.13
2018-07-07T13:01:53.891Z,98806.56
2018-07-07T13:04:22.262Z,98805.71
2018-07-07T13:06:50.617Z,98804.94
2018-07-07T13:09:18.984Z,98805.64
2018-07-07T13:11:47.220Z,98803.42
2018-07-07T13:14:15.651Z,98795.05
2018-07-07T13:16:44.016Z,98794.17
2018-07-07T13:19:12.546Z,98798.49
2018-07-07T13:21:41.136Z,98794.84
2018-07-07T13:24:11.194Z,98799.61
2018-07-07T13:26:39.592Z,98788.67
2018-07-07T13:29:07.881Z,98788.46
2018-07-07T13:31:36.324Z,98785.09
2018-07-07T13:34:04.736Z,98792.75
2018-07-07T13:36:33.068Z,98788.97
2018-07-07T13:39:01.322Z,98784.02
2018-07-07T13:41:29.709Z,98787.34
2018-07-07T13:43:58.057Z,98781.03
2018-07-07T13:46:26.388Z,98777.38
2018-07-07T13:48:54.705Z,98777.33
2018-07-07T13:51:23.393Z,98780.97
2018-07-07T13:53:51.739Z,98776.91
2018-07-07T13:56:20.054Z,98780.58
2018-07-07T13:58:48.294Z,98772.00
2018-07-07T14:01:16.827Z,98778.71
2018-07-07T14:03:45.353Z,98770.80
2018-07-07T14:06:13.746Z,98770.58
2018-07-07T14:08:42.189Z,98766.37
2018-07-07T14:11:10.536Z,98768.13
2018-07-07T14:13:38.881Z,98766.57
2018-07-07T14:16:07.449Z,98764.61
2018-07-07T14:18:35.820Z,98764.01
2018-07-07T14:21:04.160Z,98762.02
2018-07-07T14:23:32.669Z,98769.12
2018-07-07T14:26:00.944Z,98759.42
2018-07-07T14:28:29.245Z,98757.02
2018-07-07T14:30:57.576Z,98758.20
2018-07-07T14:33:25.877Z,98755.35
2018-07-07T14:35:54.190Z,98750.37
2018-07-07T14:38:30.561Z,98752.23
2018-07-07T14:41:11.177Z,98750.71
2018-07-07T14:43:53.896Z,98751.59
2018-07-07T14:46:22.781Z,98748.52
2018-07-07T14:48:51.337Z,98750.21
2018-07-07T14:51:19.689Z,98745.61
2018-07-07T14:53:48.251Z,98751.30
2018-07-07T14:56:18.024Z,98745.23
2018-07-07T14:58:46.541Z,98746.61
2018-07-07T15:01:14.928Z,98743.87
2018-07-07T15:03:43.741Z,98751.11
2018-07-07T15:06:11.968Z,98741.62
2018-07-07T15:08:40.400Z,98742.60
2018-07-07T15:11:09.321Z,98739.20
2018-07-07T15:13:38.264Z,98729.65
2018-07-07T15:16:07.057Z,98740.38
2018-07-07T15:18:35.875Z,98739.77
2018-07-07T15:21:04.572Z,98733.13
2018-07-07T15:23:33.036Z,98735.69
2018-07-07T15:26:01.801Z,98729.94
2018-07-07T15:28:30.183Z,98721.87
2018-07-07T15:30:58.760Z,98722.27
2018-07-07T15:33:27.119Z,98725.29
2018-07-07T15:35:55.417Z,98719.19
2018-07-07T15:38:23.771Z,98717.47
2018-07-07T15:40:52.129Z,98714.95
2018-07-07T15:43:20.421Z,98711.83
2018-07-07T15:45:48.747Z,98708.91
2018-07-07T15:48:17.394Z,98702.61
2018-07-07T15:50:45.799Z,98709.25
2018-07-07T15:53:14.191Z,98698.95
2018-07-07T15:55:42.423Z,98697.03
2018-07-07T15:58:10.802Z,98699.33
2018-07-07T16:00:39.134Z,98709.63
2018-07-07T16:03:07.449Z,98700.47
2018-07-07T16:05:35.707Z,98699.08
2018-07-07T16:08:04.135Z,98688.36
2018-07-07T16:10:32.602Z,98688.87
2018-07-07T16:13:00.924Z,98687.24
2018-07-07T16:15:29.265Z,98695.27
2018-07-07T16:17:57.605Z,98682.77
2018-07-07T16:20:25.869Z,98679.30
2018-07-07T16:22:54.255Z,98689.54
2018-07-07T16:25:22.665Z,98677.53
2018-07-07T16:27:51.029Z,98674.64
2018-07-07T16:30:19.269Z,98668.86
2018-07-07T16:32:47.601Z,98670.81
2018-07-07T16:35:15.955Z,98670.46
2018-07-07T16:37:44.360Z,98673.30
2018-07-07T16:40:12.702Z,98662.76
2018-07-07T16:42:42.428Z,98662.09
2018-07-07T16:45:10.923Z,98661.92
2018-07-07T16:47:39.364Z,98666.97
2018-07-07T16:50:07.797Z,98656.48
2018-07-07T16:52:36.221Z,98659.97
2018-07-07T16:55:04.590Z,98659.20
2018-07-07T16:57:32.996Z,98653.20
2018-07-07T17:00:01.390Z,98660.94
2018-07-07T17:02:30.294Z,98659.23
2018-07-07T17:04:58.595Z,98655.86
2018-07-07T17:07:27.122Z,98653.68
2018-07-07T17:09:55.519Z,98653.01
2018-07-07T17:12:24.253Z,98648.61
2018-07-07T17:14:52.654Z,98646.19
2018-07-07T17:17:21.872Z,98653.01
2018-07-07T17:19:50.181Z,98655.09
2018-07-07T17:22:18.614Z,98655.89
2018-07-07T17:24:47.089Z,98660.52
2018-07-07T17:27:16.028Z,98660.48
2018-07-07T17:29:44.415Z,98653.64
2018-07-07T17:32:12.737Z,98657.64
2018-07-07T17:34:42.221Z,98655.34
2018-07-07T17:37:10.602Z,98658.44
2018-07-07T17:39:38.934Z,98654.33
2018-07-07T17:42:07.888Z,98655.38
2018-07-07T17:44:36.247Z,98659.91
2018-07-07T17:47:04.598Z,98659.25
2018-07-07T17:49:33.050Z,98655.68
2018-07-07T17:52:01.436Z,98660.25
2018-07-07T17:54:30.353Z,98649.84
2018-07-07T17:56:59.100Z,98654.63
2018-07-07T17:59:27.511Z,98654.00
2018-07-07T18:01:55.879Z,98658.03
2018-07-07T18:04:24.292Z,98655.91
2018-07-07T18:06:52.860Z,98663.17
2018-07-07T18:09:21.148Z,98663.25
2018-07-07T18:11:49.987Z,98656.91
2018-07-07T18:14:18.426Z,98659.72
2018-07-07T18:16:51.934Z,98668.25
2018-07-07T18:19:21.064Z,98660.97
2018-07-07T18:21:50.159Z,98666.66
2018-07-07T18:24:18.682Z,98666.12
2018-07-07T18:26:47.769Z,98664.30
2018-07-07T18:29:16.276Z,98668.09
2018-07-07T18:31:44.633Z,98667.94
2018-07-07T18:34:13.076Z,98672.73
2018-07-07T18:36:41.373Z,98673.78
2018-07-07T18:39:09.733Z,98673.06
2018-07-07T18:41:38.801Z,98675.35
2018-07-07T18:44:07.244Z,98673.94
2018-07-07T18:46:35.761Z,98683.58
2018-07-07T18:49:04.797Z,98682.33
2018-07-07T18:51:33.318Z,98681.10
2018-07-07T18:54:03.773Z,98691.38
2018-07-07T18:56:33.110Z,98685.53
2018-07-07T18:59:01.565Z,98690.04
2018-07-07T19:01:29.939Z,98694.89
2018-07-07T19:03:58.855Z,98692.38
2018-07-07T19:06:27.164Z,98698.09
2018-07-07T19:09:01.475Z,98699.11
2018-07-07T19:11:29.846Z,98695.56
2018-07-07T19:13:58.156Z,98699.97
2018-07-07T19:16:26.679Z,98698.61
2018-07-07T19:18:55.163Z,98699.12
2018-07-07T19:23:32.045Z,98698.50
2018-07-07T19:26:05.946Z,98700.23
2018-07-07T19:28:34.259Z,98706.58
2018-07-07T19:31:02.563Z,98707.33
2018-07-07T19:33:36.124Z,98705.34
2018-07-07T19:36:09.873Z,98715.38
2018-07-07T19:38:38.725Z,98714.39
2018-07-07T19:41:07.683Z,98721.88
2018-07-07T19:43:38.419Z,98720.48
2018-07-07T19:46:06.729Z,98726.28
2018-07-07T19:48:35.181Z,98733.62
2018-07-07T19:51:03.621Z,98729.42
2018-07-07T19:53:32.177Z,98731.02
2018-07-07T19:56:00.517Z,98734.97
2018-07-07T19:58:28.884Z,98737.18
2018-07-07T20:00:57.216Z,98739.02
2018-07-07T20:03:25.587Z,98733.08
2018-07-07T20:05:54.188Z,98735.13
2018-07-07T20:08:22.481Z,98735.67
2018-07-07T20:10:51.038Z,98738.13
2018-07-07T20:13:19.534Z,98736.52
2018-07-07T20:16:19.598Z,98736.81
2018-07-07T20:19:23.047Z,98733.83
2018-07-07T20:21:55.911Z,98740.02
2018-07-07T20:24:40.158Z,98736.97
2018-07-07T20:27:14.430Z,98737.58
2018-07-07T20:29:43.196Z,98738.41
2018-07-07T20:32:16.906Z,98739.70
2018-07-07T20:34:45.273Z,98737.47
2018-07-07T20:37:13.702Z,98740.01
2018-07-07T20:39:42.148Z,98745.64
2018-07-07T20:42:10.739Z,98744.12
2018-07-07T20:44:39.104Z,98741.86
2018-07-07T20:47:07.617Z,98751.11
2018-07-07T20:49:35.947Z,98749.73
2018-07-07T20:52:04.517Z,98743.87
2018-07-07T20:54:33.325Z,98743.87
2018-07-07T20:57:02.332Z,98748.97
2018-07-07T20:59:31.467Z,98754.59
2018-07-07T21:02:00.066Z,98750.78
2018-07-07T21:04:28.319Z,98752.33
2018-07-07T21:06:56.956Z,98754.66
2018-07-07T21:09:25.313Z,98751.14
2018-07-07T21:11:53.951Z,98751.25
2018-07-07T21:14:22.499Z,98750.30
2018-07-07T21:16:51.024Z,98750.41
2018-07-07T21:19:19.505Z,98752.95
2018-07-07T21:21:47.928Z,98757.27
2018-07-07T21:24:16.456Z,98752.44
2018-07-07T21:26:44.963Z,98757.91
2018-07-07T21:29:13.445Z,98764.54
2018-07-07T21:31:41.821Z,98764.58
2018-07-07T21:34:10.125Z,98764.11
2018-07-07T21:36:38.578Z,98762.67
2018-07-07T21:39:07.130Z,98763.26
2018-07-07T21:41:35.610Z,98759.58
2018-07-07T21:44:04.097Z,98759.23
2018-07-07T21:46:32.571Z,98765.61
2018-07-07T21:49:00.987Z,98766.31
2018-07-07T21:51:29.395Z,98765.73
2018-07-07T21:53:57.887Z,98763.47
2018-07-07T21:56:26.401Z,98761.84
2018-07-07T21:59:00.107Z,98752.17
2018-07-07T22:02:11.917Z,98761.60
2018-07-07T22:04:45.518Z,98767.45
2018-07-07T22:07:19.220Z,98766.11
2018-07-07T22:09:47.730Z,98767.45
2018-07-07T22:12:16.104Z,98769.96
2018-07-07T22:14:44.582Z,98773.09
2018-07-07T22:17:13.042Z,98758.53
2018-07-07T22:19:41.529Z,98768.70
2018-07-07T22:22:10.832Z,98765.55
2018-07-07T22:24:40.128Z,98768.13
2018-07-07T22:27:09.716Z,98767.75
2018-07-07T22:29:38.320Z,98760.90
2018-07-07T22:32:10.968Z,98761.74
2018-07-07T22:34:40.142Z,98758.02
2018-07-07T22:37:08.920Z,98758.86
2018-07-07T22:39:39.493Z,98761.45
2018-07-07T22:42:09.149Z,98760.09
2018-07-07T22:44:38.241Z,98760.86
2018-07-07T22:47:06.574Z,98752.72
2018-07-07T22:49:35.091Z,98761.52
2018-07-07T22:52:03.784Z,98756.91
2018-07-07T22:54:32.072Z,98760.52
2018-07-07T22:57:00.497Z,98760.90
2018-07-07T22:59:28.994Z,98763.06
2018-07-07T23:01:57.409Z,98759.72
2018-07-07T23:04:25.723Z,98758.75
2018-07-07T23:06:54.107Z,98763.25
2018-07-07T23:09:22.601Z,98758.83
2018-07-07T23:11:50.929Z,98761.42
2018-07-07T23:14:19.210Z,98762.09
2018-07-07T23:16:47.531Z,98755.61
2018-07-07T23:19:15.979Z,98751.63
2018-07-07T23:21:44.308Z,98756.52
2018-07-07T23:24:12.661Z,98756.82
2018-07-07T23:26:41.083Z,98752.06
2018-07-07T23:29:09.397Z,98756.31
2018-07-07T23:31:38.332Z,98760.31
2018-07-07T23:34:06.692Z,98759.77
2018-07-07T23:36:35.092Z,98759.75
2018-07-07T23:39:03.997Z,98761.76
2018-07-07T23:41:32.290Z,98759.17
2018-07-07T23:44:00.625Z,98765.28
2018-07-07T23:46:29.011Z,98766.81
2018-07-07T23:48:57.448Z,98766.28
2018-07-07T23:51:25.789Z,98762.61
2018-07-07T23:53:54.133Z,98765.78
2018-07-07T23:56:22.444Z,98760.53
2018-07-07T23:58:50.980Z,98759.72
